This is the latest recevied weather packets stored in our database for station/object EB1TR-13. If no packets are shown the sender has not sent any weather packets the latest 10 day(s).
| Time | Temp. | Humidity | Pressure | Rain* | Wind** | Luminosity | Snow |
|---|---|---|---|---|---|---|---|
| 1787646488 | 22.22° C | 85% | 1013 hPa | 0 mm | - | 0 W/m² | - |
| 1787645588 | 21.67° C | 89% | 1013 hPa | 0 mm | - | 0 W/m² | - |
| 1787644688 | 21.11° C | 93% | 1012 hPa | 0 mm | - | 0 W/m² | - |
| 1787643788 | 20° C | 97% | 1012 hPa | 0 mm | - | 0 W/m² | - |
| 1787642888 | 20° C | 93% | 1012 hPa | 0 mm | - | 0 W/m² | - |
| 1787641988 | 19.44° C | 95% | 1012 hPa | 0 mm | - | 0 W/m² | - |
| 1787641088 | 19.44° C | 96% | 1012 hPa | 0 mm | - | 0 W/m² | - |
| 1787640188 | 18.89° C | 95% | 1012 hPa | 0 mm | - | 0 W/m² | - |
| 1787639288 | 18.89° C | 95% | 1012 hPa | 0 mm | - | 0 W/m² | - |
| 1787638388 | 19.44° C | 94% | 1012 hPa | 0 mm | - | 0 W/m² | - |
| 1787637488 | 19.44° C | 94% | 1012 hPa | 0 mm | - | 0 W/m² | - |
| 1787636587 | 19.44° C | 94% | 1012 hPa | 0 mm | - | 0 W/m² | - |
| 1787635688 | 19.44° C | 94% | 1012 hPa | 0 mm | - | 0 W/m² | - |
| 1787634788 | 19.44° C | 94% | 1012 hPa | 0 mm | - | 0 W/m² | - |
| 1787633888 | 20° C | 94% | 1012 hPa | 0 mm | - | 0 W/m² | - |
| 1787632988 | 20° C | 93% | 1012 hPa | 0 mm | - | 0 W/m² | - |
| 1787632088 | 20° C | 93% | 1012 hPa | 0 mm | - | 0 W/m² | - |
| 1787631188 | 20° C | 93% | 1011 hPa | 0 mm | - | 0 W/m² | - |
| 1787630288 | 20° C | 93% | 1011 hPa | 0 mm | - | 0 W/m² | - |
| 1787629388 | 20° C | 93% | 1011 hPa | 0 mm | - | 0 W/m² | - |
| 1787628488 | 20° C | 93% | 1012 hPa | 0 mm | - | 0 W/m² | - |
| 1787627588 | 20° C | 93% | 1011 hPa | 0 mm | - | 0 W/m² | - |
| 1787626688 | 20° C | 93% | 1011 hPa | 0 mm | - | 0 W/m² | - |
| 1787625788 | 20° C | 93% | 1011 hPa | 0 mm | - | 0 W/m² | - |
| 1787624888 | 20° C | 94% | 1012 hPa | 0 mm | - | 0 W/m² | - |
* Rain latest hour (hover to see other rain measurements)
** Current wind speed in m/s (hover to see current wind gust speed)